sensor_id;sensor_type;location;lat;lon;timestamp;temperature;humidity
33645;DHT22;19986;48.190;16.366;2022-10-16T00:01:18;16.20;99.90
33645;DHT22;19986;48.190;16.366;2022-10-16T00:03:44;16.20;99.90
33645;DHT22;19986;48.190;16.366;2022-10-16T00:06:11;16.20;99.90
33645;DHT22;19986;48.190;16.366;2022-10-16T00:08:38;16.20;99.90
33645;DHT22;19986;48.190;16.366;2022-10-16T00:11:06;16.30;99.90
33645;DHT22;19986;48.190;16.366;2022-10-16T00:13:34;16.20;99.90
33645;DHT22;19986;48.190;16.366;2022-10-16T00:16:01;16.30;99.90
33645;DHT22;19986;48.190;16.366;2022-10-16T00:18:28;16.30;99.90
33645;DHT22;19986;48.190;16.366;2022-10-16T00:20:54;16.30;99.90
33645;DHT22;19986;48.190;16.366;2022-10-16T00:23:21;16.20;99.90
33645;DHT22;19986;48.190;16.366;2022-10-16T00:25:58;16.20;99.90
33645;DHT22;19986;48.190;16.366;2022-10-16T00:28:25;16.10;99.90
33645;DHT22;19986;48.190;16.366;2022-10-16T00:30:51;16.20;99.90
33645;DHT22;19986;48.190;16.366;2022-10-16T00:33:17;16.20;99.90
33645;DHT22;19986;48.190;16.366;2022-10-16T00:35:43;16.20;99.90
33645;DHT22;19986;48.190;16.366;2022-10-16T00:38:09;16.10;99.90
33645;DHT22;19986;48.190;16.366;2022-10-16T00:40:35;16.20;99.90
33645;DHT22;19986;48.190;16.366;2022-10-16T00:43:01;16.20;99.90
33645;DHT22;19986;48.190;16.366;2022-10-16T00:45:27;16.20;99.90
33645;DHT22;19986;48.190;16.366;2022-10-16T00:47:54;16.20;99.90
33645;DHT22;19986;48.190;16.366;2022-10-16T00:50:28;16.20;99.90
33645;DHT22;19986;48.190;16.366;2022-10-16T00:52:55;16.20;99.90
33645;DHT22;19986;48.190;16.366;2022-10-16T00:55:22;16.20;99.90
33645;DHT22;19986;48.190;16.366;2022-10-16T00:57:48;16.10;99.90
33645;DHT22;19986;48.190;16.366;2022-10-16T01:00:18;16.10;99.90
33645;DHT22;19986;48.190;16.366;2022-10-16T01:02:44;16.20;99.90
33645;DHT22;19986;48.190;16.366;2022-10-16T01:05:10;16.10;99.90
33645;DHT22;19986;48.190;16.366;2022-10-16T01:07:49;16.00;99.90
33645;DHT22;19986;48.190;16.366;2022-10-16T01:11:19;16.00;99.90
33645;DHT22;19986;48.190;16.366;2022-10-16T01:13:21;16.00;99.90
33645;DHT22;19986;48.190;16.366;2022-10-16T01:16:13;15.90;99.90
33645;DHT22;19986;48.190;16.366;2022-10-16T01:18:47;15.90;99.90
33645;DHT22;19986;48.190;16.366;2022-10-16T01:21:31;15.90;99.90
33645;DHT22;19986;48.190;16.366;2022-10-16T01:27:18;16.00;99.90
33645;DHT22;19986;48.190;16.366;2022-10-16T01:32:40;16.10;99.90
33645;DHT22;19986;48.190;16.366;2022-10-16T01:35:48;16.10;99.90
33645;DHT22;19986;48.190;16.366;2022-10-16T01:38:37;16.00;99.90
33645;DHT22;19986;48.190;16.366;2022-10-16T01:41:10;15.90;99.90
33645;DHT22;19986;48.190;16.366;2022-10-16T01:43:42;15.90;99.90
33645;DHT22;19986;48.190;16.366;2022-10-16T01:46:10;15.90;99.90
33645;DHT22;19986;48.190;16.366;2022-10-16T01:48:36;15.90;99.90
33645;DHT22;19986;48.190;16.366;2022-10-16T01:51:09;15.90;99.90
33645;DHT22;19986;48.190;16.366;2022-10-16T01:53:36;15.90;99.90
33645;DHT22;19986;48.190;16.366;2022-10-16T01:56:06;15.90;99.90
33645;DHT22;19986;48.190;16.366;2022-10-16T01:58:36;16.00;99.90
33645;DHT22;19986;48.190;16.366;2022-10-16T02:01:08;16.00;99.90
33645;DHT22;19986;48.190;16.366;2022-10-16T02:03:37;16.10;99.90
33645;DHT22;19986;48.190;16.366;2022-10-16T02:06:06;16.10;99.90
33645;DHT22;19986;48.190;16.366;2022-10-16T02:08:33;16.10;99.90
33645;DHT22;19986;48.190;16.366;2022-10-16T02:11:00;16.10;99.90
33645;DHT22;19986;48.190;16.366;2022-10-16T02:13:43;16.10;99.90
33645;DHT22;19986;48.190;16.366;2022-10-16T02:16:12;16.10;99.90
33645;DHT22;19986;48.190;16.366;2022-10-16T02:18:39;16.10;99.90
33645;DHT22;19986;48.190;16.366;2022-10-16T02:23:54;16.00;99.90
33645;DHT22;19986;48.190;16.366;2022-10-16T02:27:00;16.10;99.90
33645;DHT22;19986;48.190;16.366;2022-10-16T02:29:27;16.10;99.90
33645;DHT22;19986;48.190;16.366;2022-10-16T02:31:59;16.10;99.90
33645;DHT22;19986;48.190;16.366;2022-10-16T02:34:27;16.10;99.90
33645;DHT22;19986;48.190;16.366;2022-10-16T02:36:55;16.10;99.90
33645;DHT22;19986;48.190;16.366;2022-10-16T02:39:22;16.10;99.90
33645;DHT22;19986;48.190;16.366;2022-10-16T02:41:48;16.10;99.90
33645;DHT22;19986;48.190;16.366;2022-10-16T02:44:13;16.00;99.90
33645;DHT22;19986;48.190;16.366;2022-10-16T02:46:39;16.00;99.90
33645;DHT22;19986;48.190;16.366;2022-10-16T02:49:05;16.00;99.90
33645;DHT22;19986;48.190;16.366;2022-10-16T02:51:31;15.90;99.90
33645;DHT22;19986;48.190;16.366;2022-10-16T02:53:57;15.80;99.90
33645;DHT22;19986;48.190;16.366;2022-10-16T02:56:23;15.80;99.90
33645;DHT22;19986;48.190;16.366;2022-10-16T02:58:49;15.70;99.90
33645;DHT22;19986;48.190;16.366;2022-10-16T03:01:15;15.70;99.90
33645;DHT22;19986;48.190;16.366;2022-10-16T03:03:42;15.60;99.90
33645;DHT22;19986;48.190;16.366;2022-10-16T03:06:08;15.60;99.90
33645;DHT22;19986;48.190;16.366;2022-10-16T03:08:34;15.50;99.90
33645;DHT22;19986;48.190;16.366;2022-10-16T03:11:00;15.50;99.90
33645;DHT22;19986;48.190;16.366;2022-10-16T03:13:26;15.50;99.90
33645;DHT22;19986;48.190;16.366;2022-10-16T03:15:51;15.50;99.90
33645;DHT22;19986;48.190;16.366;2022-10-16T03:18:17;15.50;99.90
33645;DHT22;19986;48.190;16.366;2022-10-16T03:20:43;15.40;99.90
33645;DHT22;19986;48.190;16.366;2022-10-16T03:23:09;15.40;99.90
33645;DHT22;19986;48.190;16.366;2022-10-16T03:25:35;15.50;99.90
33645;DHT22;19986;48.190;16.366;2022-10-16T03:28:01;15.50;99.90
33645;DHT22;19986;48.190;16.366;2022-10-16T03:30:27;15.50;99.90
33645;DHT22;19986;48.190;16.366;2022-10-16T03:32:53;15.60;99.90
33645;DHT22;19986;48.190;16.366;2022-10-16T03:35:20;15.50;99.90
33645;DHT22;19986;48.190;16.366;2022-10-16T03:37:46;15.50;99.90
33645;DHT22;19986;48.190;16.366;2022-10-16T03:40:13;15.50;99.90
33645;DHT22;19986;48.190;16.366;2022-10-16T03:42:39;15.50;99.90
33645;DHT22;19986;48.190;16.366;2022-10-16T03:45:05;15.60;99.90
33645;DHT22;19986;48.190;16.366;2022-10-16T03:47:31;15.60;99.90
33645;DHT22;19986;48.190;16.366;2022-10-16T03:49:59;15.60;99.90
33645;DHT22;19986;48.190;16.366;2022-10-16T03:52:25;15.50;99.90
33645;DHT22;19986;48.190;16.366;2022-10-16T03:54:51;15.50;99.90
33645;DHT22;19986;48.190;16.366;2022-10-16T03:57:17;15.40;99.90
33645;DHT22;19986;48.190;16.366;2022-10-16T03:59:43;15.40;99.90
33645;DHT22;19986;48.190;16.366;2022-10-16T04:02:09;15.40;99.90
33645;DHT22;19986;48.190;16.366;2022-10-16T04:04:35;15.50;99.90
33645;DHT22;19986;48.190;16.366;2022-10-16T04:07:01;15.50;99.90
33645;DHT22;19986;48.190;16.366;2022-10-16T04:09:27;15.50;99.90
33645;DHT22;19986;48.190;16.366;2022-10-16T04:11:53;15.50;99.90
33645;DHT22;19986;48.190;16.366;2022-10-16T04:14:19;15.50;99.90
33645;DHT22;19986;48.190;16.366;2022-10-16T04:16:45;15.50;99.90
33645;DHT22;19986;48.190;16.366;2022-10-16T04:19:11;15.40;99.90
33645;DHT22;19986;48.190;16.366;2022-10-16T04:21:37;15.30;99.90
33645;DHT22;19986;48.190;16.366;2022-10-16T04:24:03;15.30;99.90
33645;DHT22;19986;48.190;16.366;2022-10-16T04:26:29;15.30;99.90
33645;DHT22;19986;48.190;16.366;2022-10-16T04:28:55;15.20;99.90
33645;DHT22;19986;48.190;16.366;2022-10-16T04:31:21;15.10;99.90
33645;DHT22;19986;48.190;16.366;2022-10-16T04:33:47;15.10;99.90
33645;DHT22;19986;48.190;16.366;2022-10-16T04:36:13;15.00;99.90
33645;DHT22;19986;48.190;16.366;2022-10-16T04:38:39;15.00;99.90
33645;DHT22;19986;48.190;16.366;2022-10-16T04:41:06;15.00;99.90
33645;DHT22;19986;48.190;16.366;2022-10-16T04:43:33;15.10;99.90
33645;DHT22;19986;48.190;16.366;2022-10-16T04:45:59;15.00;99.90
33645;DHT22;19986;48.190;16.366;2022-10-16T04:48:25;15.10;99.90
33645;DHT22;19986;48.190;16.366;2022-10-16T04:50:51;15.00;99.90
33645;DHT22;19986;48.190;16.366;2022-10-16T04:53:17;15.10;99.90
33645;DHT22;19986;48.190;16.366;2022-10-16T04:55:43;15.10;99.90
33645;DHT22;19986;48.190;16.366;2022-10-16T04:58:09;15.10;99.90
33645;DHT22;19986;48.190;16.366;2022-10-16T05:00:35;15.10;99.90
33645;DHT22;19986;48.190;16.366;2022-10-16T05:03:01;15.10;99.90
33645;DHT22;19986;48.190;16.366;2022-10-16T05:05:31;15.10;99.90
33645;DHT22;19986;48.190;16.366;2022-10-16T05:07:57;15.10;99.90
33645;DHT22;19986;48.190;16.366;2022-10-16T05:10:23;15.10;99.90
33645;DHT22;19986;48.190;16.366;2022-10-16T05:12:49;15.10;99.90
33645;DHT22;19986;48.190;16.366;2022-10-16T05:15:18;15.20;99.90
33645;DHT22;19986;48.190;16.366;2022-10-16T05:17:44;15.20;99.90
33645;DHT22;19986;48.190;16.366;2022-10-16T05:20:10;15.20;99.90
33645;DHT22;19986;48.190;16.366;2022-10-16T05:22:36;15.10;99.90
33645;DHT22;19986;48.190;16.366;2022-10-16T05:25:02;15.10;99.90
33645;DHT22;19986;48.190;16.366;2022-10-16T05:27:28;15.10;99.90
33645;DHT22;19986;48.190;16.366;2022-10-16T05:29:54;15.10;99.90
33645;DHT22;19986;48.190;16.366;2022-10-16T05:32:20;15.00;99.90
33645;DHT22;19986;48.190;16.366;2022-10-16T05:34:46;15.10;99.90
33645;DHT22;19986;48.190;16.366;2022-10-16T05:37:12;15.10;99.90
33645;DHT22;19986;48.190;16.366;2022-10-16T05:39:38;15.10;99.90
33645;DHT22;19986;48.190;16.366;2022-10-16T05:42:05;15.10;99.90
33645;DHT22;19986;48.190;16.366;2022-10-16T05:44:31;15.10;99.90
33645;DHT22;19986;48.190;16.366;2022-10-16T05:46:57;15.10;99.90
33645;DHT22;19986;48.190;16.366;2022-10-16T05:49:23;15.10;99.90
33645;DHT22;19986;48.190;16.366;2022-10-16T05:51:49;15.10;99.90
33645;DHT22;19986;48.190;16.366;2022-10-16T05:54:15;15.10;99.90
33645;DHT22;19986;48.190;16.366;2022-10-16T05:56:40;15.10;99.90
33645;DHT22;19986;48.190;16.366;2022-10-16T05:59:06;15.20;99.90
33645;DHT22;19986;48.190;16.366;2022-10-16T06:01:32;15.20;99.90
33645;DHT22;19986;48.190;16.366;2022-10-16T06:03:58;15.10;99.90
33645;DHT22;19986;48.190;16.366;2022-10-16T06:06:26;15.10;99.90
33645;DHT22;19986;48.190;16.366;2022-10-16T06:08:54;15.10;99.90
33645;DHT22;19986;48.190;16.366;2022-10-16T06:11:24;15.00;99.90
33645;DHT22;19986;48.190;16.366;2022-10-16T06:13:51;15.00;99.90
33645;DHT22;19986;48.190;16.366;2022-10-16T06:16:17;15.10;99.90
33645;DHT22;19986;48.190;16.366;2022-10-16T06:18:45;15.10;99.90
33645;DHT22;19986;48.190;16.366;2022-10-16T06:21:16;15.10;99.90
33645;DHT22;19986;48.190;16.366;2022-10-16T06:23:43;15.10;99.90
33645;DHT22;19986;48.190;16.366;2022-10-16T06:26:11;15.10;99.90
33645;DHT22;19986;48.190;16.366;2022-10-16T06:28:38;15.20;99.90
33645;DHT22;19986;48.190;16.366;2022-10-16T06:31:06;15.20;99.90
33645;DHT22;19986;48.190;16.366;2022-10-16T06:33:32;15.20;99.90
33645;DHT22;19986;48.190;16.366;2022-10-16T06:36:10;15.20;99.90
33645;DHT22;19986;48.190;16.366;2022-10-16T06:38:37;15.30;99.90
33645;DHT22;19986;48.190;16.366;2022-10-16T06:41:03;15.20;99.90
33645;DHT22;19986;48.190;16.366;2022-10-16T06:43:30;15.20;99.90
33645;DHT22;19986;48.190;16.366;2022-10-16T06:46:04;15.20;99.90
33645;DHT22;19986;48.190;16.366;2022-10-16T06:48:31;15.20;99.90
33645;DHT22;19986;48.190;16.366;2022-10-16T06:51:05;15.20;99.90
33645;DHT22;19986;48.190;16.366;2022-10-16T06:53:33;15.30;99.90
33645;DHT22;19986;48.190;16.366;2022-10-16T06:56:15;15.30;99.90
33645;DHT22;19986;48.190;16.366;2022-10-16T06:58:42;15.30;99.90
33645;DHT22;19986;48.190;16.366;2022-10-16T07:01:09;15.30;99.90
33645;DHT22;19986;48.190;16.366;2022-10-16T07:03:40;15.30;99.90
33645;DHT22;19986;48.190;16.366;2022-10-16T07:06:08;15.30;99.90
33645;DHT22;19986;48.190;16.366;2022-10-16T07:08:35;15.40;99.90
33645;DHT22;19986;48.190;16.366;2022-10-16T07:11:04;15.40;99.90
33645;DHT22;19986;48.190;16.366;2022-10-16T07:13:33;15.30;99.90
33645;DHT22;19986;48.190;16.366;2022-10-16T07:16:08;15.40;99.90
33645;DHT22;19986;48.190;16.366;2022-10-16T07:18:35;15.40;99.90
33645;DHT22;19986;48.190;16.366;2022-10-16T07:21:13;15.40;99.90
33645;DHT22;19986;48.190;16.366;2022-10-16T07:23:40;15.40;99.90
33645;DHT22;19986;48.190;16.366;2022-10-16T07:26:07;15.40;99.90
33645;DHT22;19986;48.190;16.366;2022-10-16T07:28:34;15.60;99.90
33645;DHT22;19986;48.190;16.366;2022-10-16T07:31:05;15.60;99.90
33645;DHT22;19986;48.190;16.366;2022-10-16T07:33:34;15.60;99.90
33645;DHT22;19986;48.190;16.366;2022-10-16T07:36:01;15.70;99.90
33645;DHT22;19986;48.190;16.366;2022-10-16T07:38:27;15.80;99.90
33645;DHT22;19986;48.190;16.366;2022-10-16T07:41:02;15.80;99.90
33645;DHT22;19986;48.190;16.366;2022-10-16T07:43:29;16.00;99.90
33645;DHT22;19986;48.190;16.366;2022-10-16T07:45:55;16.10;99.90
33645;DHT22;19986;48.190;16.366;2022-10-16T07:48:22;16.10;99.90
33645;DHT22;19986;48.190;16.366;2022-10-16T07:50:48;15.90;99.90
33645;DHT22;19986;48.190;16.366;2022-10-16T07:53:14;15.70;99.90
33645;DHT22;19986;48.190;16.366;2022-10-16T07:56:03;15.60;99.90
33645;DHT22;19986;48.190;16.366;2022-10-16T07:58:30;15.60;99.90
33645;DHT22;19986;48.190;16.366;2022-10-16T08:00:57;15.60;99.90
33645;DHT22;19986;48.190;16.366;2022-10-16T08:03:23;15.70;99.90
33645;DHT22;19986;48.190;16.366;2022-10-16T08:05:50;15.90;99.90
33645;DHT22;19986;48.190;16.366;2022-10-16T08:08:17;16.00;99.90
33645;DHT22;19986;48.190;16.366;2022-10-16T08:10:44;16.00;99.90
33645;DHT22;19986;48.190;16.366;2022-10-16T08:13:10;16.10;99.90
33645;DHT22;19986;48.190;16.366;2022-10-16T08:15:37;16.10;99.90
33645;DHT22;19986;48.190;16.366;2022-10-16T08:18:04;16.20;99.90
33645;DHT22;19986;48.190;16.366;2022-10-16T08:20:32;16.40;99.90
33645;DHT22;19986;48.190;16.366;2022-10-16T08:22:59;16.40;99.90
33645;DHT22;19986;48.190;16.366;2022-10-16T08:25:25;16.40;99.90
33645;DHT22;19986;48.190;16.366;2022-10-16T08:27:51;16.50;99.90
33645;DHT22;19986;48.190;16.366;2022-10-16T08:30:19;16.50;99.90
33645;DHT22;19986;48.190;16.366;2022-10-16T08:32:45;16.50;99.90
33645;DHT22;19986;48.190;16.366;2022-10-16T08:35:11;16.60;99.90
33645;DHT22;19986;48.190;16.366;2022-10-16T08:37:38;16.60;99.90
33645;DHT22;19986;48.190;16.366;2022-10-16T08:40:06;16.60;99.90
33645;DHT22;19986;48.190;16.366;2022-10-16T08:50:26;16.70;99.90
33645;DHT22;19986;48.190;16.366;2022-10-16T08:52:54;16.70;99.90
33645;DHT22;19986;48.190;16.366;2022-10-16T08:55:50;16.80;99.90
33645;DHT22;19986;48.190;16.366;2022-10-16T08:58:21;16.80;99.90
33645;DHT22;19986;48.190;16.366;2022-10-16T09:00:55;16.80;99.90
33645;DHT22;19986;48.190;16.366;2022-10-16T09:17:01;17.00;99.90
33645;DHT22;19986;48.190;16.366;2022-10-16T09:19:40;17.00;99.90
33645;DHT22;19986;48.190;16.366;2022-10-16T09:22:14;17.00;99.90
33645;DHT22;19986;48.190;16.366;2022-10-16T09:24:41;16.90;99.90
33645;DHT22;19986;48.190;16.366;2022-10-16T09:27:11;17.10;99.90
33645;DHT22;19986;48.190;16.366;2022-10-16T09:29:38;17.10;99.90
33645;DHT22;19986;48.190;16.366;2022-10-16T09:32:11;17.30;99.90
33645;DHT22;19986;48.190;16.366;2022-10-16T09:34:48;17.50;99.90
33645;DHT22;19986;48.190;16.366;2022-10-16T09:37:18;17.70;99.90
33645;DHT22;19986;48.190;16.366;2022-10-16T09:39:53;17.70;99.90
33645;DHT22;19986;48.190;16.366;2022-10-16T09:42:30;17.90;99.90
33645;DHT22;19986;48.190;16.366;2022-10-16T09:44:57;17.90;99.90
33645;DHT22;19986;48.190;16.366;2022-10-16T09:47:26;17.90;99.90
33645;DHT22;19986;48.190;16.366;2022-10-16T09:50:03;18.00;99.90
33645;DHT22;19986;48.190;16.366;2022-10-16T09:52:32;18.10;99.90
33645;DHT22;19986;48.190;16.366;2022-10-16T09:55:13;18.10;99.90
33645;DHT22;19986;48.190;16.366;2022-10-16T09:57:55;18.10;99.90
33645;DHT22;19986;48.190;16.366;2022-10-16T10:00:23;18.10;99.90
33645;DHT22;19986;48.190;16.366;2022-10-16T10:02:49;18.00;99.90
33645;DHT22;19986;48.190;16.366;2022-10-16T10:05:26;17.80;99.90
33645;DHT22;19986;48.190;16.366;2022-10-16T10:08:01;17.70;99.90
33645;DHT22;19986;48.190;16.366;2022-10-16T10:10:33;17.80;99.90
33645;DHT22;19986;48.190;16.366;2022-10-16T10:13:00;18.00;99.90
33645;DHT22;19986;48.190;16.366;2022-10-16T10:15:33;18.10;99.90
33645;DHT22;19986;48.190;16.366;2022-10-16T10:17:59;18.20;99.90
33645;DHT22;19986;48.190;16.366;2022-10-16T10:20:33;18.40;99.90
33645;DHT22;19986;48.190;16.366;2022-10-16T10:23:21;18.50;99.90
33645;DHT22;19986;48.190;16.366;2022-10-16T10:45:27;18.50;99.90
33645;DHT22;19986;48.190;16.366;2022-10-16T10:48:34;18.70;99.90
33645;DHT22;19986;48.190;16.366;2022-10-16T11:05:17;19.50;99.90
33645;DHT22;19986;48.190;16.366;2022-10-16T11:08:00;19.60;99.90
33645;DHT22;19986;48.190;16.366;2022-10-16T11:10:34;19.60;99.90
33645;DHT22;19986;48.190;16.366;2022-10-16T11:13:16;19.60;99.90
33645;DHT22;19986;48.190;16.366;2022-10-16T11:15:47;19.60;99.90
33645;DHT22;19986;48.190;16.366;2022-10-16T11:18:21;19.50;99.90
33645;DHT22;19986;48.190;16.366;2022-10-16T11:20:57;19.40;99.90
33645;DHT22;19986;48.190;16.366;2022-10-16T11:23:28;19.30;99.90
33645;DHT22;19986;48.190;16.366;2022-10-16T11:26:04;19.40;99.90
33645;DHT22;19986;48.190;16.366;2022-10-16T11:28:37;19.40;99.90
33645;DHT22;19986;48.190;16.366;2022-10-16T11:31:22;19.30;99.90
33645;DHT22;19986;48.190;16.366;2022-10-16T11:36:53;19.40;99.90
33645;DHT22;19986;48.190;16.366;2022-10-16T11:39:28;19.40;99.90
33645;DHT22;19986;48.190;16.366;2022-10-16T11:42:16;19.50;99.90
33645;DHT22;19986;48.190;16.366;2022-10-16T11:45:13;19.50;99.90
33645;DHT22;19986;48.190;16.366;2022-10-16T11:47:48;19.50;99.90
33645;DHT22;19986;48.190;16.366;2022-10-16T11:55:46;19.40;99.90
33645;DHT22;19986;48.190;16.366;2022-10-16T12:07:05;19.80;99.90
33645;DHT22;19986;48.190;16.366;2022-10-16T12:09:34;19.90;99.90
33645;DHT22;19986;48.190;16.366;2022-10-16T12:12:02;19.90;99.90
33645;DHT22;19986;48.190;16.366;2022-10-16T12:16:59;19.90;99.90
33645;DHT22;19986;48.190;16.366;2022-10-16T12:19:28;19.90;99.90
33645;DHT22;19986;48.190;16.366;2022-10-16T12:21:56;19.80;99.90
33645;DHT22;19986;48.190;16.366;2022-10-16T12:24:31;19.80;99.90
33645;DHT22;19986;48.190;16.366;2022-10-16T12:26:58;19.80;99.90
33645;DHT22;19986;48.190;16.366;2022-10-16T12:29:38;19.80;99.90
33645;DHT22;19986;48.190;16.366;2022-10-16T12:32:35;19.90;99.90
33645;DHT22;19986;48.190;16.366;2022-10-16T12:35:04;20.00;99.90
33645;DHT22;19986;48.190;16.366;2022-10-16T12:37:36;20.20;99.90
33645;DHT22;19986;48.190;16.366;2022-10-16T12:42:47;20.30;99.90
33645;DHT22;19986;48.190;16.366;2022-10-16T12:47:51;20.50;99.90
33645;DHT22;19986;48.190;16.366;2022-10-16T12:50:37;20.50;99.90
33645;DHT22;19986;48.190;16.366;2022-10-16T12:53:17;20.60;99.90
33645;DHT22;19986;48.190;16.366;2022-10-16T12:58:48;20.70;99.90
33645;DHT22;19986;48.190;16.366;2022-10-16T13:01:48;20.80;99.90
33645;DHT22;19986;48.190;16.366;2022-10-16T13:07:24;20.80;99.90
33645;DHT22;19986;48.190;16.366;2022-10-16T13:10:01;20.90;99.90
33645;DHT22;19986;48.190;16.366;2022-10-16T13:12:53;20.80;99.90
33645;DHT22;19986;48.190;16.366;2022-10-16T13:15:29;20.80;99.90
33645;DHT22;19986;48.190;16.366;2022-10-16T13:18:19;20.80;99.90
33645;DHT22;19986;48.190;16.366;2022-10-16T13:26:55;20.90;99.90
33645;DHT22;19986;48.190;16.366;2022-10-16T13:29:22;20.90;99.90
33645;DHT22;19986;48.190;16.366;2022-10-16T13:31:48;20.90;99.90
33645;DHT22;19986;48.190;16.366;2022-10-16T13:34:18;21.00;99.90
33645;DHT22;19986;48.190;16.366;2022-10-16T13:36:51;21.10;99.90
33645;DHT22;19986;48.190;16.366;2022-10-16T13:39:28;21.10;99.90
33645;DHT22;19986;48.190;16.366;2022-10-16T13:42:22;21.20;99.90
33645;DHT22;19986;48.190;16.366;2022-10-16T13:44:51;21.20;99.90
33645;DHT22;19986;48.190;16.366;2022-10-16T13:47:22;21.20;99.90
33645;DHT22;19986;48.190;16.366;2022-10-16T13:50:16;21.20;99.90
33645;DHT22;19986;48.190;16.366;2022-10-16T13:52:42;21.20;99.90
33645;DHT22;19986;48.190;16.366;2022-10-16T13:55:17;21.20;99.90
33645;DHT22;19986;48.190;16.366;2022-10-16T13:57:44;21.30;99.90
33645;DHT22;19986;48.190;16.366;2022-10-16T14:00:23;21.30;99.90
33645;DHT22;19986;48.190;16.366;2022-10-16T14:02:58;21.40;99.90
33645;DHT22;19986;48.190;16.366;2022-10-16T14:05:26;21.40;99.90
33645;DHT22;19986;48.190;16.366;2022-10-16T14:07:53;21.50;99.90
33645;DHT22;19986;48.190;16.366;2022-10-16T14:10:29;21.50;99.90
33645;DHT22;19986;48.190;16.366;2022-10-16T14:13:05;21.60;99.90
33645;DHT22;19986;48.190;16.366;2022-10-16T14:15:32;21.70;99.90
33645;DHT22;19986;48.190;16.366;2022-10-16T14:17:59;21.70;99.90
33645;DHT22;19986;48.190;16.366;2022-10-16T14:20:30;21.80;99.90
33645;DHT22;19986;48.190;16.366;2022-10-16T14:23:04;21.80;99.90
33645;DHT22;19986;48.190;16.366;2022-10-16T14:25:32;21.80;99.90
33645;DHT22;19986;48.190;16.366;2022-10-16T14:28:04;21.80;99.90
33645;DHT22;19986;48.190;16.366;2022-10-16T14:30:32;21.80;99.90
33645;DHT22;19986;48.190;16.366;2022-10-16T14:33:04;21.90;99.90
33645;DHT22;19986;48.190;16.366;2022-10-16T14:37:59;21.90;99.90
33645;DHT22;19986;48.190;16.366;2022-10-16T14:40:47;21.90;99.90
33645;DHT22;19986;48.190;16.366;2022-10-16T14:45:58;21.80;99.90
33645;DHT22;19986;48.190;16.366;2022-10-16T14:48:25;21.80;99.90
33645;DHT22;19986;48.190;16.366;2022-10-16T14:50:51;21.80;99.90
33645;DHT22;19986;48.190;16.366;2022-10-16T14:53:17;21.90;99.90
33645;DHT22;19986;48.190;16.366;2022-10-16T14:55:43;21.80;99.90
33645;DHT22;19986;48.190;16.366;2022-10-16T14:58:15;21.90;99.90
33645;DHT22;19986;48.190;16.366;2022-10-16T15:00:42;21.90;99.90
33645;DHT22;19986;48.190;16.366;2022-10-16T15:03:08;21.80;99.90
33645;DHT22;19986;48.190;16.366;2022-10-16T15:05:34;21.80;99.90
33645;DHT22;19986;48.190;16.366;2022-10-16T15:08:00;21.80;99.90
33645;DHT22;19986;48.190;16.366;2022-10-16T15:10:27;21.80;99.90
33645;DHT22;19986;48.190;16.366;2022-10-16T15:12:54;21.70;99.90
33645;DHT22;19986;48.190;16.366;2022-10-16T15:18:04;21.70;99.90
33645;DHT22;19986;48.190;16.366;2022-10-16T15:20:35;21.70;99.90
33645;DHT22;19986;48.190;16.366;2022-10-16T15:23:18;21.70;99.90
33645;DHT22;19986;48.190;16.366;2022-10-16T15:25:53;21.70;99.90
33645;DHT22;19986;48.190;16.366;2022-10-16T15:28:20;21.60;99.90
33645;DHT22;19986;48.190;16.366;2022-10-16T15:30:48;21.60;99.90
33645;DHT22;19986;48.190;16.366;2022-10-16T15:33:17;21.60;99.90
33645;DHT22;19986;48.190;16.366;2022-10-16T15:35:46;21.60;99.90
33645;DHT22;19986;48.190;16.366;2022-10-16T15:38:17;21.50;99.90
33645;DHT22;19986;48.190;16.366;2022-10-16T15:40:45;21.50;99.90
33645;DHT22;19986;48.190;16.366;2022-10-16T15:43:11;21.50;99.90
33645;DHT22;19986;48.190;16.366;2022-10-16T15:45:37;21.50;99.90
33645;DHT22;19986;48.190;16.366;2022-10-16T15:48:03;21.40;99.90
33645;DHT22;19986;48.190;16.366;2022-10-16T15:50:30;21.50;99.90
33645;DHT22;19986;48.190;16.366;2022-10-16T15:52:57;21.40;99.90
33645;DHT22;19986;48.190;16.366;2022-10-16T15:55:23;21.30;99.90
33645;DHT22;19986;48.190;16.366;2022-10-16T15:57:49;21.30;99.90
33645;DHT22;19986;48.190;16.366;2022-10-16T16:00:17;21.20;99.90
33645;DHT22;19986;48.190;16.366;2022-10-16T16:02:50;21.20;99.90
33645;DHT22;19986;48.190;16.366;2022-10-16T16:05:17;21.20;99.90
33645;DHT22;19986;48.190;16.366;2022-10-16T16:07:43;21.10;99.90
33645;DHT22;19986;48.190;16.366;2022-10-16T16:10:10;21.00;99.90
33645;DHT22;19986;48.190;16.366;2022-10-16T16:12:37;21.00;99.90
33645;DHT22;19986;48.190;16.366;2022-10-16T16:15:05;21.00;99.90
33645;DHT22;19986;48.190;16.366;2022-10-16T16:17:32;21.00;99.90
33645;DHT22;19986;48.190;16.366;2022-10-16T16:19:58;20.90;99.90
33645;DHT22;19986;48.190;16.366;2022-10-16T16:22:24;20.90;99.90
33645;DHT22;19986;48.190;16.366;2022-10-16T16:24:50;20.80;99.90
33645;DHT22;19986;48.190;16.366;2022-10-16T16:27:17;20.80;99.90
33645;DHT22;19986;48.190;16.366;2022-10-16T16:29:46;20.70;99.90
33645;DHT22;19986;48.190;16.366;2022-10-16T16:32:12;20.70;99.90
33645;DHT22;19986;48.190;16.366;2022-10-16T16:34:38;20.60;99.90
33645;DHT22;19986;48.190;16.366;2022-10-16T16:37:04;20.60;99.90
33645;DHT22;19986;48.190;16.366;2022-10-16T16:39:30;20.50;99.90
33645;DHT22;19986;48.190;16.366;2022-10-16T16:41:57;20.50;99.90
33645;DHT22;19986;48.190;16.366;2022-10-16T16:44:24;20.40;99.90
33645;DHT22;19986;48.190;16.366;2022-10-16T16:46:50;20.40;99.90
33645;DHT22;19986;48.190;16.366;2022-10-16T16:49:17;20.40;99.90
33645;DHT22;19986;48.190;16.366;2022-10-16T16:51:43;20.30;99.90
33645;DHT22;19986;48.190;16.366;2022-10-16T16:54:10;20.30;99.90
33645;DHT22;19986;48.190;16.366;2022-10-16T16:56:37;20.30;99.90
33645;DHT22;19986;48.190;16.366;2022-10-16T16:59:03;20.20;99.90
33645;DHT22;19986;48.190;16.366;2022-10-16T17:01:30;20.20;99.90
33645;DHT22;19986;48.190;16.366;2022-10-16T17:03:58;20.20;99.90
33645;DHT22;19986;48.190;16.366;2022-10-16T17:06:29;20.30;99.90
33645;DHT22;19986;48.190;16.366;2022-10-16T17:08:57;20.20;99.90
33645;DHT22;19986;48.190;16.366;2022-10-16T17:11:27;20.20;99.90
33645;DHT22;19986;48.190;16.366;2022-10-16T17:13:55;20.20;99.90
33645;DHT22;19986;48.190;16.366;2022-10-16T17:16:28;20.20;99.90
33645;DHT22;19986;48.190;16.366;2022-10-16T17:18:55;20.20;99.90
33645;DHT22;19986;48.190;16.366;2022-10-16T17:21:21;20.20;99.90